createdAt,value
2019-05-02T00:02:28.786Z,1.62
2019-05-02T00:04:58.845Z,2.20
2019-05-02T00:07:27.242Z,1.75
2019-05-02T00:09:55.808Z,1.60
2019-05-02T00:12:24.708Z,1.32
2019-05-02T00:14:56.585Z,1.80
2019-05-02T00:17:25.523Z,1.80
2019-05-02T00:19:53.839Z,1.85
2019-05-02T00:22:22.308Z,1.33
2019-05-02T00:24:50.724Z,1.80
2019-05-02T00:27:19.125Z,1.93
2019-05-02T00:29:47.200Z,1.82
2019-05-02T00:32:18.289Z,1.80
2019-05-02T00:34:45.724Z,1.77
2019-05-02T00:37:13.861Z,1.53
2019-05-02T00:39:45.118Z,1.60
2019-05-02T00:42:13.188Z,1.80
2019-05-02T00:44:46.837Z,1.93
2019-05-02T00:47:26.348Z,1.83
2019-05-02T00:49:54.755Z,1.37
2019-05-02T00:52:23.140Z,1.73
2019-05-02T00:54:55.031Z,1.80
2019-05-02T00:57:21.805Z,1.50
2019-05-02T00:59:50.208Z,1.70
2019-05-02T01:02:25.956Z,1.67
2019-05-02T01:04:54.361Z,1.40
2019-05-02T01:07:25.633Z,1.50
2019-05-02T01:09:52.880Z,1.70
2019-05-02T01:12:26.495Z,1.37
2019-05-02T01:14:51.406Z,1.80
2019-05-02T01:17:19.869Z,1.30
2019-05-02T01:19:51.439Z,1.70
2019-05-02T01:22:18.060Z,1.67
2019-05-02T01:24:46.464Z,1.63
2019-05-02T01:27:19.643Z,1.30
2019-05-02T01:30:05.834Z,1.67
2019-05-02T01:32:41.765Z,1.60
2019-05-02T01:35:14.463Z,1.80
2019-05-02T01:38:00.670Z,1.67
2019-05-02T01:40:28.750Z,1.40
2019-05-02T01:42:59.384Z,1.90
2019-05-02T01:45:27.796Z,1.73
2019-05-02T01:47:55.867Z,1.70
2019-05-02T01:50:43.782Z,2.07
2019-05-02T01:53:12.163Z,1.43
2019-05-02T01:55:40.577Z,1.50
2019-05-02T01:58:08.964Z,1.43
2019-05-02T02:00:40.896Z,1.70
2019-05-02T02:03:09.150Z,1.47
2019-05-02T02:05:37.917Z,1.47
2019-05-02T02:08:06.059Z,1.70
2019-05-02T02:10:34.453Z,1.60
2019-05-02T02:13:05.077Z,1.90
2019-05-02T02:15:32.637Z,2.10
2019-05-02T02:18:01.054Z,1.60
2019-05-02T02:20:31.084Z,1.63
2019-05-02T02:23:01.123Z,1.90
2019-05-02T02:25:48.992Z,1.57
2019-05-02T02:28:17.397Z,1.70
2019-05-02T02:30:45.793Z,1.53
2019-05-02T02:33:13.869Z,1.53
2019-05-02T02:35:49.570Z,1.53
2019-05-02T02:38:12.457Z,1.23
2019-05-02T02:40:40.524Z,1.47
2019-05-02T02:43:34.040Z,1.83
2019-05-02T02:46:21.105Z,1.97
2019-05-02T02:48:49.509Z,1.57
2019-05-02T02:51:23.807Z,1.60
2019-05-02T02:53:48.043Z,1.60
2019-05-02T02:56:16.443Z,1.27
2019-05-02T02:58:47.485Z,1.60
2019-05-02T03:01:27.775Z,1.50
2019-05-02T03:03:45.121Z,1.50
2019-05-02T03:06:13.193Z,1.90
2019-05-02T03:08:46.243Z,1.90
2019-05-02T03:11:22.444Z,1.27
2019-05-02T03:14:07.178Z,1.53
2019-05-02T03:16:33.134Z,1.60
2019-05-02T03:19:01.534Z,1.80
2019-05-02T03:21:29.996Z,1.70
2019-05-02T03:24:03.146Z,1.63
2019-05-02T03:26:28.647Z,1.70
2019-05-02T03:28:58.707Z,1.50
2019-05-02T03:31:30.593Z,1.70
2019-05-02T03:34:00.597Z,1.60
2019-05-02T03:36:34.897Z,1.57
2019-05-02T03:38:58.802Z,1.67
2019-05-02T03:41:27.171Z,1.63
2019-05-02T03:44:09.695Z,1.70
2019-05-02T03:46:25.837Z,1.73
2019-05-02T03:49:06.049Z,2.07
2019-05-02T03:51:25.228Z,1.70
2019-05-02T03:54:06.480Z,1.50
2019-05-02T03:56:24.291Z,1.83
2019-05-02T03:58:57.795Z,1.50
2019-05-02T04:01:23.682Z,1.70
2019-05-02T04:03:53.157Z,1.53
2019-05-02T04:06:23.608Z,1.70
2019-05-02T04:08:58.722Z,1.50
2019-05-02T04:11:24.296Z,1.90
2019-05-02T04:13:54.376Z,1.60
2019-05-02T04:16:23.309Z,1.83
2019-05-02T04:18:55.682Z,1.57
2019-05-02T04:21:25.993Z,1.90
2019-05-02T04:23:53.081Z,1.80
2019-05-02T04:26:21.463Z,1.63
2019-05-02T04:28:51.697Z,1.87
2019-05-02T04:31:24.877Z,1.80
2019-05-02T04:33:50.118Z,1.70
2019-05-02T04:36:18.513Z,1.50
2019-05-02T04:38:48.717Z,1.30
2019-05-02T04:41:18.813Z,1.80
2019-05-02T04:43:53.243Z,1.57
2019-05-02T04:46:21.862Z,1.60
2019-05-02T04:48:49.784Z,1.73
2019-05-02T04:51:20.214Z,2.00
2019-05-02T04:53:49.852Z,1.50
2019-05-02T04:56:18.475Z,1.53
2019-05-02T04:58:49.404Z,1.70
2019-05-02T05:01:17.614Z,1.62
2019-05-02T05:03:49.128Z,1.70
2019-05-02T05:06:18.631Z,1.67
2019-05-02T05:08:48.245Z,1.60
2019-05-02T05:11:20.895Z,1.62
2019-05-02T05:13:47.936Z,1.60
2019-05-02T05:16:18.493Z,1.65
2019-05-02T05:18:49.498Z,1.70
2019-05-02T05:21:17.948Z,1.70
2019-05-02T05:23:51.727Z,1.82
2019-05-02T05:26:18.432Z,1.47
2019-05-02T05:29:08.121Z,1.77
2019-05-02T05:31:38.175Z,1.30
2019-05-02T05:34:08.023Z,1.95
2019-05-02T05:36:37.491Z,1.50
2019-05-02T05:39:08.625Z,1.45
2019-05-02T05:41:37.802Z,1.47
2019-05-02T05:44:07.780Z,1.40
2019-05-02T05:46:38.754Z,1.70
2019-05-02T05:49:12.584Z,1.52
2019-05-02T05:51:37.515Z,1.90
2019-05-02T05:54:07.749Z,1.40
2019-05-02T05:56:39.640Z,1.45
2019-05-02T05:59:28.252Z,1.65
2019-05-02T06:01:57.999Z,1.37
2019-05-02T06:04:32.616Z,1.52
2019-05-02T06:06:59.396Z,1.65
2019-05-02T06:09:30.947Z,1.45
2019-05-02T06:11:56.760Z,1.82
2019-05-02T06:14:26.264Z,1.62
2019-05-02T06:16:55.025Z,1.87
2019-05-02T06:19:23.143Z,1.90
2019-05-02T06:21:51.551Z,1.57
2019-05-02T06:24:19.619Z,1.20
2019-05-02T06:26:49.736Z,1.85
2019-05-02T06:29:20.588Z,2.17
2019-05-02T06:31:48.280Z,1.22
2019-05-02T06:34:38.780Z,1.40
2019-05-02T06:37:08.238Z,1.40
2019-05-02T06:39:36.376Z,1.05
2019-05-02T06:42:04.845Z,1.47
2019-05-02T06:44:33.244Z,1.35
2019-05-02T06:47:04.329Z,1.22
2019-05-02T06:49:31.832Z,1.50
2019-05-02T06:52:00.244Z,1.60
2019-05-02T06:54:28.308Z,1.12
2019-05-02T06:56:56.719Z,1.37
2019-05-02T06:59:25.116Z,1.57
2019-05-02T07:01:57.330Z,1.60
2019-05-02T07:04:25.050Z,1.55
2019-05-02T07:06:58.524Z,1.52
2019-05-02T07:09:23.883Z,1.60
2019-05-02T07:11:57.319Z,1.35
2019-05-02T07:14:23.414Z,1.45
2019-05-02T07:16:56.277Z,1.67
2019-05-02T07:19:29.417Z,1.30
2019-05-02T07:22:00.368Z,1.65
2019-05-02T07:24:30.613Z,1.75
2019-05-02T07:26:58.482Z,1.70
2019-05-02T07:29:26.873Z,1.70
2019-05-02T07:31:55.376Z,1.70
2019-05-02T07:34:23.837Z,1.77
2019-05-02T07:36:52.308Z,1.95
2019-05-02T07:39:20.711Z,2.05
2019-05-02T07:41:49.130Z,2.10
2019-05-02T07:44:17.525Z,2.00
2019-05-02T07:46:51.955Z,1.90
2019-05-02T07:49:16.056Z,2.00
2019-05-02T07:51:44.469Z,1.70
2019-05-02T07:54:12.875Z,2.30
2019-05-02T07:56:40.952Z,2.10
2019-05-02T07:59:09.351Z,2.08
2019-05-02T08:01:37.837Z,2.27
2019-05-02T08:04:11.346Z,2.67
2019-05-02T08:06:40.208Z,2.85
2019-05-02T08:09:09.276Z,2.60
2019-05-02T08:11:38.549Z,2.87
2019-05-02T08:14:07.076Z,2.95
2019-05-02T08:17:04.939Z,2.90
2019-05-02T08:19:24.948Z,2.47
2019-05-02T08:21:53.370Z,2.70
2019-05-02T08:24:40.781Z,2.42
2019-05-02T08:27:10.825Z,2.87
2019-05-02T08:29:38.897Z,2.50
2019-05-02T08:32:07.020Z,2.47
2019-05-02T08:34:35.451Z,2.50
2019-05-02T08:37:04.910Z,2.70
2019-05-02T08:39:33.895Z,2.72
2019-05-02T08:42:04.045Z,2.35
2019-05-02T08:44:32.450Z,2.80
2019-05-02T08:47:00.853Z,2.90
2019-05-02T08:49:29.265Z,2.50
2019-05-02T08:51:57.668Z,3.17
2019-05-02T08:54:27.963Z,2.83
2019-05-02T08:56:59.095Z,2.85
2019-05-02T08:59:26.205Z,2.22
2019-05-02T09:01:54.893Z,2.52
2019-05-02T09:04:24.169Z,2.70
2019-05-02T09:06:57.885Z,2.58
2019-05-02T09:09:27.899Z,2.50
2019-05-02T09:12:04.830Z,2.35
2019-05-02T09:14:22.842Z,2.77
2019-05-02T09:16:52.374Z,2.33
2019-05-02T09:19:24.966Z,2.60
2019-05-02T09:21:52.557Z,2.10
2019-05-02T09:24:23.791Z,1.82
2019-05-02T09:26:51.888Z,2.37
2019-05-02T09:29:22.196Z,2.25
2019-05-02T09:31:52.705Z,1.80
2019-05-02T09:34:25.000Z,2.33
2019-05-02T09:36:52.995Z,2.27
2019-05-02T09:39:22.765Z,3.17
2019-05-02T09:41:52.614Z,1.72
2019-05-02T09:44:22.386Z,1.95
2019-05-02T09:46:53.059Z,2.27
2019-05-02T09:49:22.055Z,2.25
2019-05-02T09:51:59.242Z,2.65
2019-05-02T09:54:22.820Z,2.15
2019-05-02T09:56:52.348Z,2.10
2019-05-02T09:59:29.206Z,2.00
2019-05-02T10:01:52.758Z,2.80
2019-05-02T10:04:22.414Z,2.35
2019-05-02T10:06:52.486Z,2.17
2019-05-02T10:09:24.402Z,2.45
2019-05-02T10:11:52.556Z,2.37
2019-05-02T10:14:22.658Z,2.37
2019-05-02T10:16:52.771Z,2.33
2019-05-02T10:19:25.313Z,2.30
2019-05-02T10:21:54.272Z,2.58
2019-05-02T10:24:22.171Z,2.00
2019-05-02T10:26:55.268Z,2.12
2019-05-02T10:29:28.074Z,2.30
2019-05-02T10:31:52.663Z,1.85
2019-05-02T10:34:22.596Z,2.02
2019-05-02T10:36:58.306Z,2.00
2019-05-02T10:39:23.177Z,2.60
2019-05-02T10:42:12.486Z,2.17
2019-05-02T10:44:42.601Z,1.87
2019-05-02T10:47:12.333Z,2.30
2019-05-02T10:49:44.729Z,2.52
2019-05-02T10:52:13.120Z,2.00
2019-05-02T10:54:42.190Z,2.42
2019-05-02T10:57:12.648Z,2.15
2019-05-02T10:59:42.093Z,2.10
2019-05-02T11:02:24.309Z,2.20
2019-05-02T11:04:57.043Z,2.20
2019-05-02T11:07:26.480Z,1.77
2019-05-02T11:09:57.455Z,2.20
2019-05-02T11:12:40.277Z,1.90
2019-05-02T11:15:02.303Z,1.67
2019-05-02T11:17:32.523Z,2.20
2019-05-02T11:20:05.104Z,2.10
2019-05-02T11:22:33.517Z,1.80
2019-05-02T11:25:02.155Z,2.08
2019-05-02T11:27:32.759Z,1.90
2019-05-02T11:30:02.722Z,1.82
2019-05-02T11:32:32.704Z,1.47
2019-05-02T11:35:02.979Z,1.27
2019-05-02T11:37:32.843Z,1.95
2019-05-02T11:40:05.281Z,1.17
2019-05-02T11:42:32.328Z,1.42
2019-05-02T11:45:02.645Z,1.20
2019-05-02T11:47:32.718Z,1.80
2019-05-02T11:50:02.398Z,1.62
2019-05-02T11:52:33.001Z,1.40
2019-05-02T11:55:02.039Z,1.35
2019-05-02T11:57:33.014Z,1.37
2019-05-02T12:00:05.081Z,1.70
2019-05-02T12:02:34.600Z,1.65
2019-05-02T12:05:03.572Z,1.82
2019-05-02T12:07:32.445Z,1.25
2019-05-02T12:10:04.502Z,1.40
2019-05-02T12:12:32.449Z,1.65
2019-05-02T12:15:02.547Z,1.47
2019-05-02T12:17:32.557Z,1.30
2019-05-02T12:20:02.054Z,1.70
2019-05-02T12:22:32.468Z,1.52
2019-05-02T12:25:02.866Z,1.37
2019-05-02T12:27:31.859Z,1.07
2019-05-02T12:30:00.404Z,1.25
2019-05-02T12:32:29.588Z,1.37
2019-05-02T12:34:57.983Z,1.35
2019-05-02T12:37:26.406Z,1.52
2019-05-02T12:39:54.480Z,1.35
2019-05-02T12:42:23.886Z,1.47
2019-05-02T12:44:53.352Z,1.30
2019-05-02T12:47:22.572Z,1.00
2019-05-02T12:49:51.911Z,1.60
2019-05-02T12:52:20.177Z,0.80
2019-05-02T12:54:48.590Z,1.50
2019-05-02T12:57:16.996Z,1.52
2019-05-02T12:59:45.396Z,1.62
2019-05-02T13:02:15.452Z,1.15
2019-05-02T13:04:43.875Z,1.67
2019-05-02T13:07:12.739Z,1.27
2019-05-02T13:09:41.995Z,1.27
2019-05-02T13:12:15.715Z,1.17
2019-05-02T13:14:44.128Z,0.90
2019-05-02T13:17:12.608Z,0.93
2019-05-02T13:19:48.865Z,1.30
2019-05-02T13:22:15.548Z,1.22
2019-05-02T13:24:47.050Z,1.27
2019-05-02T13:27:17.030Z,1.42
2019-05-02T13:29:45.106Z,1.00
2019-05-02T13:32:18.950Z,0.90
2019-05-02T13:34:53.930Z,0.90
2019-05-02T13:37:22.535Z,1.07
2019-05-02T13:39:53.113Z,1.05
2019-05-02T13:42:22.010Z,1.20
2019-05-02T13:45:08.448Z,0.93
2019-05-02T13:47:36.848Z,0.80
2019-05-02T13:50:06.960Z,1.05
2019-05-02T13:52:35.367Z,1.10
2019-05-02T13:55:08.347Z,1.15
2019-05-02T13:57:41.917Z,1.10
2019-05-02T14:00:08.292Z,0.90
2019-05-02T14:02:43.520Z,1.02
2019-05-02T14:05:12.851Z,1.00
2019-05-02T14:07:55.650Z,0.98
2019-05-02T14:10:39.272Z,0.95
2019-05-02T14:13:04.022Z,1.00
2019-05-02T14:15:34.069Z,0.85
2019-05-02T14:18:02.657Z,0.93
2019-05-02T14:20:33.119Z,0.60
2019-05-02T14:23:02.225Z,0.82
2019-05-02T14:25:32.158Z,0.90
2019-05-02T14:28:02.657Z,0.80
2019-05-02T14:30:37.108Z,0.90
2019-05-02T14:33:02.440Z,0.90
2019-05-02T14:35:32.675Z,0.82
2019-05-02T14:38:13.076Z,0.85
2019-05-02T14:40:45.115Z,0.70
2019-05-02T14:43:15.144Z,0.70
2019-05-02T14:45:43.922Z,0.85
2019-05-02T14:48:20.071Z,0.78
2019-05-02T14:50:46.032Z,1.07
2019-05-02T14:53:16.819Z,0.80
2019-05-02T14:55:47.075Z,0.90
2019-05-02T14:58:15.478Z,1.00
2019-05-02T15:00:47.890Z,0.70
2019-05-02T15:03:19.049Z,0.70
2019-05-02T15:05:45.849Z,0.95
2019-05-02T15:08:14.249Z,1.35
2019-05-02T15:10:50.777Z,0.90
2019-05-02T15:13:12.791Z,0.70
2019-05-02T15:15:43.478Z,0.60
2019-05-02T15:18:13.470Z,0.90
2019-05-02T15:20:42.410Z,0.80
2019-05-02T15:23:14.471Z,0.82
2019-05-02T15:25:42.389Z,0.70
2019-05-02T15:28:13.109Z,0.72
2019-05-02T15:30:47.846Z,0.70
2019-05-02T15:33:17.123Z,0.75
2019-05-02T15:35:49.476Z,1.17
2019-05-02T15:38:24.682Z,0.90
2019-05-02T15:40:51.346Z,0.88
2019-05-02T15:43:18.138Z,0.70
2019-05-02T15:45:46.630Z,1.02
2019-05-02T15:48:22.779Z,0.88
2019-05-02T15:50:50.221Z,0.95
2019-05-02T15:53:16.669Z,0.95
2019-05-02T15:55:45.068Z,0.93
2019-05-02T15:58:16.883Z,1.12
2019-05-02T16:00:52.035Z,1.15
2019-05-02T16:03:22.020Z,1.05
2019-05-02T16:05:52.392Z,1.10
2019-05-02T16:08:21.545Z,0.90
2019-05-02T16:10:50.132Z,1.10
2019-05-02T16:13:18.540Z,1.20
2019-05-02T16:15:46.935Z,1.00
2019-05-02T16:18:15.024Z,1.07
2019-05-02T16:21:04.181Z,1.30
2019-05-02T16:23:29.458Z,1.20
2019-05-02T16:26:10.480Z,1.10
2019-05-02T16:28:44.207Z,1.15
2019-05-02T16:31:12.449Z,1.20
2019-05-02T16:33:41.769Z,1.72
2019-05-02T16:36:09.952Z,1.47
2019-05-02T16:38:38.005Z,1.50
2019-05-02T16:41:10.008Z,1.30
2019-05-02T16:43:35.864Z,1.42
2019-05-02T16:46:06.823Z,1.17
2019-05-02T16:48:37.588Z,1.10
2019-05-02T16:51:08.234Z,1.20
2019-05-02T16:53:34.716Z,1.22
2019-05-02T16:56:06.994Z,1.20
2019-05-02T16:58:33.802Z,1.30
2019-05-02T17:01:04.916Z,1.75
2019-05-02T17:03:33.325Z,1.22
2019-05-02T17:06:01.795Z,1.50
2019-05-02T17:08:32.814Z,1.52
2019-05-02T17:11:03.171Z,1.40
2019-05-02T17:13:32.769Z,1.45
2019-05-02T17:16:06.951Z,1.45
2019-05-02T17:18:32.668Z,1.47
2019-05-02T17:21:01.691Z,1.55
2019-05-02T17:23:30.289Z,1.50
2019-05-02T17:25:58.414Z,1.60
2019-05-02T17:28:26.814Z,1.60
2019-05-02T17:30:55.458Z,1.52
2019-05-02T17:33:23.532Z,1.47
2019-05-02T17:35:54.235Z,1.57
2019-05-02T17:38:24.958Z,1.47
2019-05-02T17:40:54.316Z,1.40
2019-05-02T17:43:22.710Z,1.95
2019-05-02T17:45:51.539Z,1.75
2019-05-02T17:48:19.988Z,2.22
2019-05-02T17:50:59.086Z,2.33
2019-05-02T17:53:25.729Z,2.42
2019-05-02T17:55:54.136Z,2.27
2019-05-02T17:58:22.550Z,2.05
2019-05-02T18:00:57.017Z,2.05
2019-05-02T18:03:24.276Z,2.58
2019-05-02T18:05:53.012Z,2.58
2019-05-02T18:08:34.213Z,2.37
2019-05-02T18:11:02.937Z,2.62
2019-05-02T18:13:33.764Z,2.22
2019-05-02T18:16:02.787Z,2.33
2019-05-02T18:18:31.928Z,2.47
2019-05-02T18:21:02.057Z,2.83
2019-05-02T18:23:32.236Z,2.47
2019-05-02T18:26:04.451Z,3.10
2019-05-02T18:28:30.922Z,2.95
2019-05-02T18:31:02.826Z,3.10
2019-05-02T18:33:29.460Z,3.33
2019-05-02T18:35:57.932Z,3.10
2019-05-02T18:38:26.336Z,2.60
2019-05-02T18:40:55.460Z,3.22
2019-05-02T18:43:24.232Z,3.30
2019-05-02T18:45:52.311Z,3.30
2019-05-02T18:48:21.911Z,3.33
2019-05-02T18:50:52.411Z,3.45
2019-05-02T18:53:24.088Z,3.55
2019-05-02T18:55:51.957Z,4.33
2019-05-02T18:58:22.519Z,3.60
2019-05-02T19:00:51.960Z,3.55
2019-05-02T19:03:20.690Z,3.47
2019-05-02T19:05:51.526Z,3.55
2019-05-02T19:08:30.523Z,3.70
2019-05-02T19:11:02.544Z,3.22
2019-05-02T19:13:19.835Z,4.15
2019-05-02T19:15:49.046Z,3.00
2019-05-02T19:18:18.424Z,2.58
2019-05-02T19:20:57.617Z,3.12
2019-05-02T19:23:24.287Z,3.35
2019-05-02T19:25:52.912Z,2.77
2019-05-02T19:28:34.670Z,3.27
2019-05-02T19:31:02.927Z,3.00
2019-05-02T19:33:49.398Z,2.83
2019-05-02T19:36:24.419Z,2.85
2019-05-02T19:38:47.996Z,2.02
2019-05-02T19:41:16.412Z,2.40
2019-05-02T19:43:49.516Z,2.42
2019-05-02T19:46:16.932Z,2.20
2019-05-02T19:48:45.064Z,2.15
2019-05-02T19:51:18.479Z,2.45
2019-05-02T19:53:43.270Z,2.52
2019-05-02T19:56:12.804Z,2.22
2019-05-02T19:58:42.787Z,2.12
2019-05-02T20:01:12.704Z,2.58
2019-05-02T20:03:42.391Z,2.25
2019-05-02T20:06:12.805Z,2.30
2019-05-02T20:08:42.150Z,2.10
2019-05-02T20:11:12.451Z,2.37
2019-05-02T20:13:40.814Z,2.02
2019-05-02T20:16:31.946Z,1.80
2019-05-02T20:19:01.947Z,2.15
2019-05-02T20:21:32.654Z,1.55
2019-05-02T20:24:03.955Z,2.30
2019-05-02T20:26:32.553Z,2.17
2019-05-02T20:29:02.012Z,1.80
2019-05-02T20:31:32.139Z,2.20
2019-05-02T20:34:02.577Z,1.95
2019-05-02T20:36:32.082Z,2.20
2019-05-02T20:39:02.177Z,2.10
2019-05-02T20:41:30.698Z,1.90
2019-05-02T20:43:58.828Z,2.37
2019-05-02T20:46:27.238Z,2.00
2019-05-02T20:48:55.302Z,2.10
2019-05-02T20:51:23.881Z,2.33
2019-05-02T20:53:52.715Z,2.90
2019-05-02T20:56:22.961Z,2.80
2019-05-02T20:58:52.634Z,3.12
2019-05-02T21:01:21.573Z,2.80
2019-05-02T21:03:52.067Z,2.72
2019-05-02T21:06:40.130Z,2.20
2019-05-02T21:09:02.377Z,2.50
2019-05-02T21:11:32.402Z,2.80
2019-05-02T21:14:01.734Z,2.12
2019-05-02T21:16:32.132Z,2.02
2019-05-02T21:19:02.244Z,1.75
2019-05-02T21:21:32.546Z,2.00
2019-05-02T21:24:02.093Z,1.82
2019-05-02T21:26:32.762Z,1.62
2019-05-02T21:29:00.864Z,1.72
2019-05-02T21:31:29.280Z,1.60
2019-05-02T21:33:59.580Z,1.30
2019-05-02T21:36:27.982Z,1.50
2019-05-02T21:38:56.397Z,1.37
2019-05-02T21:41:24.868Z,1.40
2019-05-02T21:43:53.279Z,1.20
2019-05-02T21:46:22.398Z,1.15
2019-05-02T21:48:52.509Z,1.10
2019-05-02T21:51:25.404Z,0.95
2019-05-02T21:54:12.256Z,0.90
2019-05-02T21:56:43.045Z,0.80
2019-05-02T21:59:12.524Z,1.00
2019-05-02T22:01:45.669Z,1.00
2019-05-02T22:04:14.151Z,1.10
2019-05-02T22:06:42.873Z,1.10
2019-05-02T22:09:12.441Z,1.00
2019-05-02T22:11:42.898Z,0.70
2019-05-02T22:14:13.292Z,0.80
2019-05-02T22:16:42.131Z,0.90
2019-05-02T22:19:10.954Z,0.60
2019-05-02T22:21:39.439Z,0.70
2019-05-02T22:24:11.509Z,1.00
2019-05-02T22:26:38.057Z,0.98
2019-05-02T22:29:06.541Z,0.82
2019-05-02T22:31:35.220Z,0.90
2019-05-02T22:34:04.004Z,0.98
2019-05-02T22:36:32.849Z,0.80
2019-05-02T22:39:05.886Z,0.90
2019-05-02T22:41:34.294Z,0.82
2019-05-02T22:44:02.366Z,0.90
2019-05-02T22:46:43.305Z,0.70
2019-05-02T22:49:14.635Z,1.00
2019-05-02T22:51:43.269Z,0.85
2019-05-02T22:54:24.111Z,0.88
2019-05-02T22:56:42.594Z,0.80
2019-05-02T22:59:10.913Z,1.00
2019-05-02T23:01:39.313Z,0.75
2019-05-02T23:04:07.723Z,0.90
2019-05-02T23:06:36.130Z,0.75
2019-05-02T23:09:06.642Z,0.78
2019-05-02T23:11:35.308Z,1.10
2019-05-02T23:14:04.456Z,0.75
2019-05-02T23:16:34.637Z,0.75
2019-05-02T23:19:02.977Z,0.60
2019-05-02T23:21:32.504Z,0.42
2019-05-02T23:24:02.983Z,0.60
2019-05-02T23:26:49.443Z,0.60
2019-05-02T23:29:19.412Z,0.45
2019-05-02T23:31:47.809Z,0.57
2019-05-02T23:34:15.903Z,0.40
2019-05-02T23:36:44.292Z,0.60
2019-05-02T23:39:12.706Z,0.62
2019-05-02T23:41:42.011Z,0.50
2019-05-02T23:44:12.276Z,0.45
2019-05-02T23:46:42.385Z,0.47
2019-05-02T23:49:12.663Z,0.60
2019-05-02T23:51:42.795Z,0.82
2019-05-02T23:54:12.919Z,0.50
2019-05-02T23:56:42.983Z,0.70
2019-05-02T23:59:11.914Z,0.60
